createdAt,value
2022-09-24T00:06:01.939Z,9.5
2022-09-24T00:16:01.390Z,9.6
2022-09-24T00:26:01.392Z,9.5
2022-09-24T00:42:01.388Z,9.5
2022-09-24T00:57:01.367Z,9.5
2022-09-24T01:12:01.425Z,9.5
2022-09-24T01:27:01.381Z,9.5
2022-09-24T01:32:01.544Z,9.6
2022-09-24T01:47:01.446Z,9.6
2022-09-24T02:02:16.242Z,9.6
2022-09-24T02:17:01.375Z,9.6
2022-09-24T02:32:01.396Z,9.6
2022-09-24T02:47:01.373Z,9.6
2022-09-24T02:57:01.463Z,9.5
2022-09-24T03:13:01.475Z,9.5
2022-09-24T03:18:01.299Z,9.6
2022-09-24T03:33:01.517Z,9.6
2022-09-24T03:48:01.432Z,9.6
2022-09-24T04:03:01.473Z,9.6
2022-09-24T04:19:01.133Z,9.6
2022-09-24T04:34:01.145Z,9.6
2022-09-24T04:39:01.126Z,9.7
2022-09-24T04:54:06.144Z,9.7
2022-09-24T04:59:01.228Z,9.8
2022-09-24T05:30:01.368Z,9.9
2022-09-24T05:45:01.327Z,10.0
2022-09-24T06:00:02.840Z,10.1
2022-09-24T06:10:01.192Z,10.2
2022-09-24T06:15:01.184Z,10.2
2022-09-24T06:20:01.206Z,10.3
2022-09-24T06:25:01.388Z,10.4
2022-09-24T06:30:01.364Z,10.4
2022-09-24T06:35:01.703Z,10.5
2022-09-24T06:40:01.281Z,10.6
2022-09-24T06:45:01.337Z,10.6
2022-09-24T06:50:01.278Z,10.7
2022-09-24T07:00:03.282Z,10.7
2022-09-24T07:05:01.525Z,10.8
2022-09-24T07:10:01.474Z,10.9
2022-09-24T07:15:01.531Z,10.9
2022-09-24T07:20:01.362Z,11.0
2022-09-24T07:25:01.201Z,11.1
2022-09-24T07:30:01.357Z,11.2
2022-09-24T07:35:01.551Z,11.3
2022-09-24T07:40:01.507Z,11.4
2022-09-24T07:45:01.378Z,11.5
2022-09-24T07:50:01.485Z,11.7
2022-09-24T07:55:01.350Z,11.9
2022-09-24T08:00:02.550Z,12.2
2022-09-24T08:05:01.304Z,12.4
2022-09-24T08:10:01.219Z,12.7
2022-09-24T08:15:01.347Z,12.9
2022-09-24T08:20:01.247Z,13.1
2022-09-24T08:25:01.352Z,13.3
2022-09-24T08:30:01.382Z,13.6
2022-09-24T08:35:01.777Z,13.7
2022-09-24T08:40:01.441Z,14.0
2022-09-24T08:45:01.620Z,14.2
2022-09-24T08:50:01.318Z,14.4
2022-09-24T08:55:01.472Z,14.6
2022-09-24T09:00:02.577Z,14.9
2022-09-24T09:05:01.401Z,15.0
2022-09-24T09:10:01.229Z,15.2
2022-09-24T09:15:01.335Z,15.3
2022-09-24T09:20:01.234Z,15.4
2022-09-24T09:30:01.273Z,15.4
2022-09-24T09:45:01.417Z,15.5
2022-09-24T09:55:01.353Z,15.6
2022-09-24T10:00:02.865Z,15.6
2022-09-24T10:05:01.347Z,15.7
2022-09-24T10:15:02.321Z,15.8
2022-09-24T10:20:01.238Z,15.9
2022-09-24T10:30:01.448Z,16.0
2022-09-24T10:40:01.371Z,16.1
2022-09-24T10:45:01.330Z,16.1
2022-09-24T11:00:03.769Z,16.2
2022-09-24T11:15:01.341Z,16.1
2022-09-24T11:20:01.551Z,16.2
2022-09-24T11:30:01.309Z,16.3
2022-09-24T11:35:01.433Z,16.4
2022-09-24T11:40:01.278Z,16.5
2022-09-24T11:45:01.520Z,16.6
2022-09-24T12:00:02.255Z,16.6
2022-09-24T12:05:01.390Z,16.5
2022-09-24T12:15:01.349Z,16.4
2022-09-24T12:20:01.333Z,16.3
2022-09-24T12:30:01.355Z,16.2
2022-09-24T12:45:01.415Z,16.2
2022-09-24T12:50:01.274Z,16.1
2022-09-24T13:00:02.097Z,16.1
2022-09-24T13:10:01.478Z,16.0
2022-09-24T13:15:01.413Z,16.0
2022-09-24T13:20:01.273Z,15.9
2022-09-24T13:30:01.363Z,15.9
2022-09-24T13:40:01.079Z,16.0
2022-09-24T13:45:01.168Z,16.0
2022-09-24T13:55:02.216Z,15.9
2022-09-24T14:00:01.155Z,15.9
2022-09-24T14:10:01.434Z,15.8
2022-09-24T14:15:01.339Z,15.8
2022-09-24T14:25:01.321Z,15.7
2022-09-24T14:30:01.293Z,15.7
2022-09-24T14:35:01.439Z,15.6
2022-09-24T14:40:02.614Z,15.5
2022-09-24T14:45:01.298Z,15.4
2022-09-24T14:50:01.334Z,15.3
2022-09-24T15:00:02.717Z,15.2
2022-09-24T15:05:16.158Z,15.1
2022-09-24T15:10:01.692Z,15.0
2022-09-24T15:15:01.325Z,14.9
2022-09-24T15:20:01.424Z,14.8
2022-09-24T15:30:01.928Z,14.7
2022-09-24T15:40:01.371Z,14.6
2022-09-24T15:45:01.592Z,14.5
2022-09-24T16:00:02.684Z,14.4
2022-09-24T16:15:01.300Z,14.4
2022-09-24T16:30:01.422Z,14.4
2022-09-24T16:40:01.311Z,14.3
2022-09-24T16:45:01.442Z,14.4
2022-09-24T17:00:02.735Z,14.3
2022-09-24T17:15:02.343Z,14.3
2022-09-24T17:25:09.232Z,14.2
2022-09-24T17:30:01.305Z,14.2
2022-09-24T17:35:01.421Z,14.1
2022-09-24T17:45:01.719Z,14.1
2022-09-24T17:50:01.301Z,14.0
2022-09-24T18:00:02.332Z,14.0
2022-09-24T18:10:01.445Z,13.9
2022-09-24T18:15:01.304Z,13.9
2022-09-24T18:30:01.452Z,13.9
2022-09-24T18:35:01.945Z,13.8
2022-09-24T18:45:01.365Z,13.8
2022-09-24T18:55:01.654Z,13.7
2022-09-24T19:00:02.401Z,13.7
2022-09-24T19:10:01.630Z,13.6
2022-09-24T19:15:01.500Z,13.6
2022-09-24T19:25:01.438Z,13.5
2022-09-24T19:30:01.960Z,13.5
2022-09-24T19:40:01.458Z,13.4
2022-09-24T19:45:01.638Z,13.4
2022-09-24T19:55:01.444Z,13.3
2022-09-24T20:00:04.159Z,13.3
2022-09-24T20:10:01.459Z,13.2
2022-09-24T20:15:01.403Z,13.2
2022-09-24T20:30:01.441Z,13.1
2022-09-24T20:45:06.021Z,13.1
2022-09-24T21:00:02.804Z,13.1
2022-09-24T21:15:01.425Z,13.1
2022-09-24T21:21:01.675Z,13.0
2022-09-24T21:36:01.683Z,13.0
2022-09-24T21:51:01.404Z,12.9
2022-09-24T22:06:01.369Z,12.9
2022-09-24T22:21:01.418Z,12.9
2022-09-24T22:36:01.378Z,12.8
2022-09-24T22:51:01.978Z,12.8
2022-09-24T23:06:01.423Z,12.8
2022-09-24T23:21:16.211Z,12.8
2022-09-24T23:36:01.270Z,12.8
2022-09-24T23:51:01.505Z,12.8
